Time;durP1;ratioP1;P1;durP2;ratioP2;P2;SDS_P1;SDS_P2;PMS_P1;PMS_P2;Temp;Humidity;BMP_temperature;BMP_pressure;BME280_temperature;BME280_humidity;BME280_pressure;Samples;Min_cycle;Max_cycle;Signal;HPM_P1;HPM_P2
2021/12/27 00:00:22;;;;;;;6.68;3.63;;;7.80;99.90;;;;;;5012720;28;20061;-78
2021/12/27 00:02:49;;;;;;;;;;;7.80;99.90;;;;;;5026767;28;20230;-78
2021/12/27 00:05:15;;;;;;;5.90;3.88;;;7.90;99.90;;;;;;5028388;28;20302;-78
2021/12/27 00:07:43;;;;;;;5.70;3.47;;;8.00;99.90;;;;;;5027877;28;20029;-79
2021/12/27 00:10:10;;;;;;;6.70;3.70;;;8.00;99.90;;;;;;5028249;28;20068;-79
2021/12/27 00:12:35;;;;;;;5.50;3.10;;;8.00;99.90;;;;;;5030018;28;20513;-79
2021/12/27 00:15:02;;;;;;;4.22;3.30;;;8.00;99.90;;;;;;5029469;28;20050;-79
2021/12/27 00:17:27;;;;;;;6.22;3.50;;;8.00;99.90;;;;;;5026507;28;20021;-79
2021/12/27 00:19:55;;;;;;;5.88;3.40;;;8.10;99.90;;;;;;5029584;28;20104;-79
2021/12/27 00:22:21;;;;;;;5.80;2.85;;;8.00;99.90;;;;;;5028985;28;20033;-79
2021/12/27 00:24:47;;;;;;;5.93;3.25;;;8.00;99.90;;;;;;5029552;28;20104;-79
2021/12/27 00:27:17;;;;;;;4.32;2.70;;;8.10;99.90;;;;;;5027847;28;20029;-79
2021/12/27 00:29:44;;;;;;;4.17;2.43;;;8.00;99.90;;;;;;5030662;28;20025;-78
2021/12/27 00:32:09;;;;;;;3.35;2.28;;;8.00;99.90;;;;;;5027498;28;20291;-78
2021/12/27 00:34:38;;;;;;;5.10;2.67;;;8.00;99.90;;;;;;5026841;28;20116;-78
2021/12/27 00:37:08;;;;;;;4.72;2.92;;;8.00;99.90;;;;;;5026790;28;20025;-78
2021/12/27 00:39:34;;;;;;;4.68;2.30;;;8.00;99.90;;;;;;5028890;28;20052;-78
2021/12/27 00:42:01;;;;;;;3.45;2.22;;;8.10;99.90;;;;;;5027459;28;20030;-78
2021/12/27 00:44:27;;;;;;;4.30;2.63;;;8.10;99.90;;;;;;5028219;28;20137;-78
2021/12/27 00:46:53;;;;;;;5.25;2.67;;;8.10;99.90;;;;;;5018867;28;20040;-78
2021/12/27 00:49:20;;;;;;;4.53;3.10;;;8.10;99.90;;;;;;5020412;28;20087;-79
2021/12/27 00:51:46;;;;;;;5.88;3.03;;;8.10;99.90;;;;;;5028869;28;20029;-79
2021/12/27 00:54:12;;;;;;;8.32;4.00;;;8.10;99.90;;;;;;5028707;28;20527;-79
2021/12/27 00:56:38;;;;;;;5.00;3.00;;;8.10;99.90;;;;;;5030570;28;20041;-78
2021/12/27 00:59:04;;;;;;;7.57;3.17;;;8.10;99.90;;;;;;5028641;28;20497;-78
2021/12/27 01:01:29;;;;;;;5.25;3.22;;;8.10;99.90;;;;;;5026971;28;20061;-78
2021/12/27 01:03:56;;;;;;;5.22;3.25;;;8.10;99.90;;;;;;5029293;28;20013;-78
2021/12/27 01:06:21;;;;;;;7.10;3.50;;;8.10;99.90;;;;;;5028699;28;20495;-78
2021/12/27 01:08:47;;;;;;;4.65;3.08;;;8.10;99.90;;;;;;5029601;28;20045;-78
2021/12/27 01:11:25;;;;;;;7.13;2.92;;;8.10;99.90;;;;;;5029258;28;20029;-78
2021/12/27 01:14:26;;;;;;;4.88;3.00;;;8.10;99.90;;;;;;5025287;28;20497;-78
2021/12/27 01:16:52;;;;;;;7.57;3.85;;;8.20;99.90;;;;;;5026984;28;20080;-78
2021/12/27 01:19:18;;;;;;;6.35;3.10;;;8.10;99.90;;;;;;5021523;28;20034;-78
2021/12/27 01:21:44;;;;;;;4.85;2.67;;;8.20;99.90;;;;;;5023598;28;20044;-78
2021/12/27 01:24:10;;;;;;;4.40;2.65;;;8.20;99.90;;;;;;5026560;28;20542;-78
2021/12/27 01:26:35;;;;;;;4.68;2.50;;;8.30;99.90;;;;;;5033121;28;20028;-79
2021/12/27 01:29:01;;;;;;;5.30;2.83;;;8.30;99.90;;;;;;5030889;28;20487;-79
2021/12/27 01:31:28;;;;;;;3.85;2.10;;;8.30;99.90;;;;;;5022367;28;20108;-79
2021/12/27 01:33:55;;;;;;;3.42;2.10;;;8.30;99.90;;;;;;5031775;28;20028;-78
2021/12/27 01:36:21;;;;;;;4.72;2.65;;;8.40;99.90;;;;;;5030023;28;20108;-79
2021/12/27 01:38:48;;;;;;;3.92;2.30;;;8.40;99.90;;;;;;5031058;28;20022;-78
2021/12/27 01:41:16;;;;;;;3.33;1.92;;;8.40;99.90;;;;;;5032098;28;20030;-78
2021/12/27 01:43:42;;;;;;;5.10;2.05;;;8.40;99.90;;;;;;5027676;28;20049;-79
2021/12/27 01:46:17;;;;;;;4.88;1.88;;;8.50;99.90;;;;;;5029982;28;20049;-78
2021/12/27 01:48:54;;;;;;;2.78;2.28;;;8.40;99.90;;;;;;5029961;28;20503;-78
2021/12/27 01:51:19;;;;;;;2.55;1.67;;;8.50;99.90;;;;;;5022147;28;20156;-78
2021/12/27 01:53:46;;;;;;;3.60;1.90;;;8.40;99.90;;;;;;5031080;28;20018;-79
2021/12/27 01:56:13;;;;;;;3.13;1.60;;;8.40;99.90;;;;;;5028538;28;20026;-78
2021/12/27 01:58:40;;;;;;;2.85;1.92;;;8.40;99.90;;;;;;5031778;28;20180;-78
2021/12/27 02:01:09;;;;;;;2.05;1.50;;;8.40;99.90;;;;;;5031053;28;20144;-78
2021/12/27 02:03:37;;;;;;;3.00;1.90;;;8.50;99.90;;;;;;5024349;28;20026;-78
2021/12/27 02:06:05;;;;;;;5.30;1.92;;;8.50;99.90;;;;;;5031500;28;20025;-78
2021/12/27 02:08:31;;;;;;;3.60;1.63;;;8.50;99.90;;;;;;5025486;28;20025;-78
2021/12/27 02:10:57;;;;;;;3.25;1.95;;;8.50;99.90;;;;;;5028175;28;20022;-78
2021/12/27 02:13:23;;;;;;;3.05;2.10;;;8.60;99.90;;;;;;5031316;28;20553;-78
2021/12/27 02:15:50;;;;;;;3.08;2.03;;;8.60;99.90;;;;;;5026047;28;20014;-78
2021/12/27 02:18:16;;;;;;;3.60;2.05;;;8.60;99.90;;;;;;5031034;28;20115;-79
2021/12/27 02:20:43;;;;;;;4.05;1.92;;;8.60;99.90;;;;;;5032537;28;20498;-79
2021/12/27 02:23:15;;;;;;;3.15;1.92;;;8.60;99.90;;;;;;5029212;28;20033;-79
2021/12/27 02:25:43;;;;;;;2.17;1.55;;;8.60;99.90;;;;;;5030381;28;20032;-79
2021/12/27 02:28:09;;;;;;;2.25;1.73;;;8.50;99.90;;;;;;5030976;28;20048;-79
2021/12/27 02:30:38;;;;;;;3.25;1.95;;;8.50;99.90;;;;;;5030990;28;20160;-79
2021/12/27 02:33:05;;;;;;;2.70;2.08;;;8.50;99.90;;;;;;5029251;28;20018;-79
2021/12/27 02:35:35;;;;;;;4.22;2.72;;;8.50;99.90;;;;;;5025351;28;20091;-79
2021/12/27 02:38:02;;;;;;;2.90;2.15;;;8.50;99.90;;;;;;5029234;28;20013;-79
2021/12/27 02:40:29;;;;;;;4.07;2.17;;;8.60;99.90;;;;;;5028081;28;20029;-79
2021/12/27 02:43:12;;;;;;;2.60;2.20;;;8.70;99.90;;;;;;5029397;28;20087;-78
2021/12/27 02:45:41;;;;;;;3.80;1.80;;;8.70;99.90;;;;;;5022710;28;20049;-78
2021/12/27 02:48:07;;;;;;;2.90;2.08;;;8.70;99.90;;;;;;5031144;28;20030;-79
2021/12/27 02:50:35;;;;;;;2.90;1.90;;;8.70;99.90;;;;;;5030773;28;20114;-79
2021/12/27 02:53:01;;;;;;;2.47;1.80;;;8.70;99.90;;;;;;5029235;28;20152;-79
2021/12/27 02:55:27;;;;;;;2.70;2.00;;;8.70;99.90;;;;;;5027353;28;20056;-79
2021/12/27 02:57:53;;;;;;;3.30;1.77;;;8.70;99.90;;;;;;5030488;28;20535;-79
2021/12/27 03:00:24;;;;;;;3.38;2.20;;;8.70;99.90;;;;;;5030754;28;20048;-79
2021/12/27 03:02:51;;;;;;;2.30;1.60;;;8.80;99.90;;;;;;5029361;28;20029;-79
2021/12/27 03:05:19;;;;;;;1.48;1.30;;;8.70;99.90;;;;;;5029879;28;20029;-78
2021/12/27 03:07:48;;;;;;;3.97;1.92;;;8.80;99.90;;;;;;5027777;28;20507;-79
2021/12/27 03:10:17;;;;;;;3.25;1.80;;;8.80;99.90;;;;;;5026316;28;20117;-79
2021/12/27 03:12:45;;;;;;;2.00;1.30;;;8.80;99.90;;;;;;5030095;28;20071;-79
2021/12/27 03:15:13;;;;;;;3.10;1.83;;;8.90;99.90;;;;;;5028585;28;20039;-79
2021/12/27 03:17:40;;;;;;;2.08;1.50;;;8.90;99.90;;;;;;5030275;28;20103;-79
2021/12/27 03:20:07;;;;;;;3.28;1.70;;;8.90;99.90;;;;;;5029677;28;20040;-79
2021/12/27 03:22:33;;;;;;;2.15;1.90;;;8.90;99.90;;;;;;5025830;28;20030;-79
2021/12/27 03:25:00;;;;;;;4.05;1.60;;;8.90;99.90;;;;;;5029219;28;20032;-79
2021/12/27 03:27:26;;;;;;;1.98;1.15;;;8.90;99.90;;;;;;5029853;28;20030;-79
2021/12/27 03:29:53;;;;;;;2.15;1.48;;;8.90;99.90;;;;;;5028911;28;20028;-79
2021/12/27 03:32:21;;;;;;;1.38;1.20;;;8.90;99.90;;;;;;5030468;28;20026;-79
2021/12/27 03:35:03;;;;;;;1.60;1.38;;;8.80;99.90;;;;;;5026869;28;20033;-79
2021/12/27 03:37:30;;;;;;;2.17;1.60;;;8.80;99.90;;;;;;5020845;28;20030;-78
2021/12/27 03:39:56;;;;;;;2.88;1.30;;;8.80;99.90;;;;;;5022883;28;20033;-78
2021/12/27 03:42:22;;;;;;;2.00;1.80;;;8.80;99.90;;;;;;5029307;28;20104;-78
2021/12/27 03:44:47;;;;;;;1.65;1.35;;;8.80;99.90;;;;;;5029740;28;20492;-79
2021/12/27 03:47:13;;;;;;;4.20;1.65;;;8.80;99.90;;;;;;5029919;28;20519;-78
2021/12/27 03:49:39;;;;;;;1.55;1.45;;;8.80;99.90;;;;;;5028877;28;20037;-78
2021/12/27 03:52:05;;;;;;;1.90;1.55;;;8.80;99.90;;;;;;5029307;28;20025;-78
2021/12/27 03:54:31;;;;;;;2.08;1.42;;;8.80;99.90;;;;;;5029198;28;20101;-78
2021/12/27 03:56:57;;;;;;;2.90;1.65;;;8.70;99.90;;;;;;5028407;28;20117;-78
2021/12/27 03:59:36;;;;;;;2.97;1.52;;;8.70;99.90;;;;;;5029045;28;20037;-78
2021/12/27 04:02:03;;;;;;;2.47;1.60;;;8.70;99.90;;;;;;5028288;28;20026;-78
2021/12/27 04:04:29;;;;;;;1.60;1.27;;;8.80;99.90;;;;;;5028951;28;20025;-78
2021/12/27 04:06:55;;;;;;;2.45;1.40;;;8.80;99.90;;;;;;5027713;28;20550;-78
2021/12/27 04:09:21;;;;;;;1.42;1.13;;;8.80;99.90;;;;;;5028682;28;20104;-78
2021/12/27 04:11:47;;;;;;;1.52;1.40;;;8.80;99.90;;;;;;5029894;28;20108;-78
2021/12/27 04:14:12;;;;;;;2.75;1.80;;;8.70;99.90;;;;;;5027954;28;20117;-77
2021/12/27 04:16:38;;;;;;;2.20;1.92;;;8.70;99.90;;;;;;5026716;28;20040;-78
2021/12/27 04:19:04;;;;;;;2.13;1.30;;;8.70;99.90;;;;;;5023307;28;20537;-78
2021/12/27 04:21:30;;;;;;;1.33;1.23;;;8.70;99.90;;;;;;5028477;28;20491;-78
2021/12/27 04:23:55;;;;;;;1.77;1.35;;;8.70;99.90;;;;;;5028938;28;20033;-78
2021/12/27 04:26:22;;;;;;;2.60;1.38;;;8.70;99.90;;;;;;5029796;28;20621;-78
2021/12/27 04:28:49;;;;;;;2.63;1.35;;;8.70;99.90;;;;;;5028682;28;20022;-78
2021/12/27 04:31:15;;;;;;;2.22;1.92;;;8.70;99.90;;;;;;5028778;28;20113;-78
2021/12/27 04:33:41;;;;;;;2.78;1.45;;;8.70;99.90;;;;;;5029017;28;20096;-78
2021/12/27 04:36:07;;;;;;;2.38;1.60;;;8.70;99.90;;;;;;5028255;28;20055;-78
2021/12/27 04:38:33;;;;;;;1.63;1.52;;;8.70;99.90;;;;;;5027197;28;20059;-78
2021/12/27 04:41:00;;;;;;;2.83;1.55;;;8.80;99.90;;;;;;5025809;28;20121;-78
2021/12/27 04:43:25;;;;;;;3.13;1.92;;;8.80;99.90;;;;;;5028510;28;20056;-78
2021/12/27 04:45:53;;;;;;;1.98;1.33;;;8.80;99.90;;;;;;5024533;28;20050;-79
2021/12/27 04:48:21;;;;;;;1.88;1.65;;;8.70;99.90;;;;;;5028856;28;20122;-78
2021/12/27 04:50:47;;;;;;;2.20;1.33;;;8.80;99.90;;;;;;5029062;28;20140;-79
2021/12/27 04:53:12;;;;;;;1.55;1.45;;;8.80;99.90;;;;;;5028950;28;20534;-78
2021/12/27 04:55:38;;;;;;;1.50;1.27;;;8.80;99.90;;;;;;5028228;28;20029;-78
2021/12/27 04:58:08;;;;;;;1.83;1.20;;;8.80;99.90;;;;;;5027215;28;20101;-79
2021/12/27 05:00:34;;;;;;;1.92;1.40;;;8.80;99.90;;;;;;5029367;28;20032;-78
2021/12/27 05:03:00;;;;;;;2.72;1.63;;;8.70;99.90;;;;;;5030314;28;20032;-78
2021/12/27 05:05:26;;;;;;;2.63;1.20;;;8.80;99.90;;;;;;5030145;28;20029;-79
2021/12/27 05:07:53;;;;;;;2.22;1.45;;;8.80;99.90;;;;;;5029525;28;20032;-78
2021/12/27 05:10:18;;;;;;;2.70;1.50;;;8.80;99.90;;;;;;5029683;28;20067;-79
2021/12/27 05:12:45;;;;;;;1.80;1.55;;;8.90;99.90;;;;;;5023511;28;20448;-79
2021/12/27 05:15:11;;;;;;;5.80;1.48;;;8.90;99.90;;;;;;5031507;28;20021;-79
2021/12/27 05:17:37;;;;;;;3.80;1.60;;;8.80;99.90;;;;;;5033967;28;20021;-79
2021/12/27 05:20:05;;;;;;;2.70;1.83;;;8.90;99.90;;;;;;5031812;28;20498;-79
2021/12/27 05:22:33;;;;;;;3.97;2.42;;;8.90;99.90;;;;;;5029218;28;20022;-79
2021/12/27 05:24:59;;;;;;;3.75;1.80;;;9.00;99.90;;;;;;5028177;28;20026;-79
2021/12/27 05:27:25;;;;;;;3.08;1.95;;;8.90;99.90;;;;;;5032123;28;20031;-79
2021/12/27 05:29:51;;;;;;;3.65;1.85;;;8.90;99.90;;;;;;5030889;28;20033;-78
2021/12/27 05:32:17;;;;;;;4.40;1.92;;;8.90;99.90;;;;;;5032873;28;20024;-78
2021/12/27 05:34:42;;;;;;;2.33;1.90;;;8.90;99.90;;;;;;5030851;28;20529;-79
2021/12/27 05:37:08;;;;;;;3.17;2.10;;;8.90;99.90;;;;;;5024871;28;20029;-78
2021/12/27 05:39:34;;;;;;;3.45;1.70;;;8.90;99.90;;;;;;5030416;28;20036;-79
2021/12/27 05:42:00;;;;;;;3.20;1.85;;;8.90;99.90;;;;;;5030897;28;20023;-79
2021/12/27 05:44:26;;;;;;;2.70;1.98;;;8.90;99.90;;;;;;5032239;28;20099;-78
2021/12/27 05:46:54;;;;;;;3.75;2.00;;;8.90;99.90;;;;;;5030327;28;20032;-79
2021/12/27 05:49:20;;;;;;;2.92;2.10;;;8.90;99.90;;;;;;5028746;28;20036;-78
2021/12/27 05:51:46;;;;;;;3.42;1.70;;;8.90;99.90;;;;;;5031575;28;20013;-78
2021/12/27 05:54:13;;;;;;;1.88;1.75;;;8.90;99.90;;;;;;5031720;28;20576;-79
2021/12/27 05:56:39;;;;;;;3.20;1.75;;;8.90;99.90;;;;;;5032908;28;20017;-80
2021/12/27 05:59:05;;;;;;;2.92;1.80;;;8.90;99.90;;;;;;5031044;28;20075;-80
2021/12/27 06:01:31;;;;;;;2.67;1.58;;;8.90;99.90;;;;;;5027202;28;20025;-80
2021/12/27 06:03:59;;;;;;;3.53;1.85;;;8.90;99.90;;;;;;5031095;28;20486;-79
2021/12/27 06:06:25;;;;;;;3.90;2.15;;;8.90;99.90;;;;;;5031377;28;20068;-80
2021/12/27 06:08:51;;;;;;;2.70;1.63;;;8.90;99.90;;;;;;5031069;28;20041;-80
2021/12/27 06:11:17;;;;;;;3.83;2.40;;;8.90;99.90;;;;;;5029782;28;20022;-80
2021/12/27 06:13:43;;;;;;;2.92;2.10;;;8.90;99.90;;;;;;5028374;28;20463;-80
2021/12/27 06:16:10;;;;;;;2.42;1.98;;;8.90;99.90;;;;;;5030831;28;20034;-79
2021/12/27 06:18:37;;;;;;;2.70;1.63;;;8.90;99.90;;;;;;5022971;28;20036;-80
2021/12/27 06:21:04;;;;;;;3.15;1.77;;;8.90;99.90;;;;;;5027103;28;20100;-80
2021/12/27 06:23:33;;;;;;;3.42;2.08;;;8.90;99.90;;;;;;5028190;28;20601;-80
2021/12/27 06:25:59;;;;;;;3.40;1.88;;;8.90;99.90;;;;;;5029170;28;20033;-79
2021/12/27 06:28:27;;;;;;;2.50;2.20;;;8.90;99.90;;;;;;5030380;28;20034;-79
2021/12/27 06:30:53;;;;;;;2.80;2.20;;;8.90;99.90;;;;;;5027637;28;20022;-79
2021/12/27 06:33:19;;;;;;;4.75;2.47;;;9.00;99.90;;;;;;5029296;28;20078;-79
2021/12/27 06:35:45;;;;;;;4.15;2.50;;;9.00;99.90;;;;;;5028153;28;20499;-79
2021/12/27 06:38:11;;;;;;;3.45;2.72;;;8.90;99.90;;;;;;5030730;28;20036;-80
2021/12/27 06:40:37;;;;;;;4.80;2.65;;;9.00;99.90;;;;;;5030976;28;20022;-80
2021/12/27 06:43:03;;;;;;;5.72;3.00;;;9.10;99.90;;;;;;5023983;28;20057;-80
2021/12/27 06:45:29;;;;;;;4.40;2.97;;;9.10;99.90;;;;;;5027869;28;20061;-79
2021/12/27 06:47:54;;;;;;;3.88;2.95;;;9.10;99.90;;;;;;5029435;28;20029;-79
2021/12/27 06:50:23;;;;;;;6.05;3.53;;;9.00;99.90;;;;;;5031430;28;20028;-79
2021/12/27 06:52:49;;;;;;;5.50;3.20;;;9.00;99.90;;;;;;5026695;28;20021;-79
2021/12/27 06:55:14;;;;;;;8.30;4.43;;;9.10;99.90;;;;;;5029668;28;20021;-79
2021/12/27 06:57:41;;;;;;;8.63;4.80;;;9.20;99.90;;;;;;5030377;28;20048;-79
2021/12/27 07:00:10;;;;;;;10.90;4.28;;;9.40;99.90;;;;;;5030201;28;20087;-79
2021/12/27 07:02:36;;;;;;;5.68;2.20;;;9.50;99.90;;;;;;5030479;28;20026;-79
2021/12/27 07:05:03;;;;;;;2.80;2.42;;;9.90;99.90;;;;;;5028195;28;20022;-79
2021/12/27 07:07:29;;;;;;;4.60;2.42;;;9.90;99.90;;;;;;5029530;28;20041;-79
2021/12/27 07:09:55;;;;;;;3.58;2.00;;;9.80;99.90;;;;;;5029508;28;20056;-80
2021/12/27 07:12:21;;;;;;;1.85;1.63;;;9.80;99.90;;;;;;5021193;28;20061;-80
2021/12/27 07:14:48;;;;;;;2.60;1.48;;;10.00;99.90;;;;;;5030829;28;20504;-80
2021/12/27 07:17:15;;;;;;;3.90;1.40;;;9.90;99.90;;;;;;5029774;28;20021;-80
2021/12/27 07:19:41;;;;;;;1.88;1.70;;;9.80;99.90;;;;;;5027808;28;20032;-80
2021/12/27 07:22:07;;;;;;;3.38;2.15;;;9.80;99.90;;;;;;5028013;28;20025;-79
2021/12/27 07:24:33;;;;;;;2.80;1.58;;;9.80;99.90;;;;;;5028650;28;20029;-80
2021/12/27 07:26:59;;;;;;;2.90;1.48;;;9.80;99.90;;;;;;5030106;28;20036;-80
2021/12/27 07:29:25;;;;;;;1.80;1.10;;;9.90;99.90;;;;;;5029372;28;20021;-80
2021/12/27 07:31:51;;;;;;;1.83;1.08;;;9.90;99.90;;;;;;5028910;28;20029;-80
2021/12/27 07:34:19;;;;;;;1.30;1.20;;;9.80;99.90;;;;;;5029499;28;20549;-80
2021/12/27 07:36:46;;;;;;;1.70;1.20;;;9.90;99.90;;;;;;5029738;28;20570;-79
2021/12/27 07:39:12;;;;;;;2.72;1.60;;;9.90;99.90;;;;;;5029244;28;20025;-78
2021/12/27 07:41:38;;;;;;;2.97;1.88;;;9.90;99.90;;;;;;5030883;28;20406;-78
2021/12/27 07:44:04;;;;;;;2.28;1.42;;;9.90;99.90;;;;;;5027615;28;20045;-79
2021/12/27 07:46:30;;;;;;;3.55;1.50;;;9.90;99.90;;;;;;5024632;28;20040;-80
2021/12/27 07:48:55;;;;;;;5.72;1.98;;;9.80;99.90;;;;;;5027157;28;20117;-80
2021/12/27 07:51:21;;;;;;;3.55;1.90;;;9.80;99.90;;;;;;5026698;28;20581;-80
2021/12/27 07:53:47;;;;;;;2.53;2.08;;;9.80;99.90;;;;;;5029355;28;20026;-81
2021/12/27 07:56:13;;;;;;;2.67;1.52;;;9.80;99.90;;;;;;5028021;28;20455;-81
2021/12/27 07:58:39;;;;;;;5.00;1.90;;;9.90;99.90;;;;;;5028737;28;20454;-81
2021/12/27 08:01:05;;;;;;;6.53;2.53;;;9.90;99.90;;;;;;5028940;28;20025;-81
2021/12/27 08:03:31;;;;;;;2.95;1.88;;;9.90;99.90;;;;;;5025817;28;20561;-81
2021/12/27 08:05:56;;;;;;;3.30;1.80;;;10.00;99.90;;;;;;5029410;28;20034;-82
2021/12/27 08:08:22;;;;;;;3.65;1.30;;;10.00;99.90;;;;;;5023875;28;20022;-81
2021/12/27 08:10:48;;;;;;;3.85;1.48;;;10.10;99.90;;;;;;5025021;28;20086;-82
2021/12/27 08:13:14;;;;;;;2.47;1.33;;;10.00;99.90;;;;;;5027601;28;20026;-83
2021/12/27 08:15:39;;;;;;;5.57;1.70;;;10.00;99.90;;;;;;5029242;28;20037;-82
2021/12/27 08:18:05;;;;;;;1.60;1.40;;;10.00;99.90;;;;;;5033991;28;20033;-82
2021/12/27 08:20:31;;;;;;;2.53;1.55;;;9.90;99.90;;;;;;5033726;28;20029;-82
2021/12/27 08:22:57;;;;;;;1.58;1.15;;;9.90;99.90;;;;;;5032300;28;20395;-81
2021/12/27 08:25:23;;;;;;;3.72;1.17;;;10.00;99.90;;;;;;5029167;28;20029;-81
2021/12/27 08:27:49;;;;;;;2.05;1.30;;;10.00;99.90;;;;;;5028465;28;20499;-80
2021/12/27 08:30:15;;;;;;;1.77;1.35;;;10.00;99.90;;;;;;5027181;28;20029;-81
2021/12/27 08:32:42;;;;;;;1.92;1.05;;;10.00;99.90;;;;;;5031023;28;20388;-81
2021/12/27 08:35:09;;;;;;;2.58;1.30;;;10.00;99.90;;;;;;5028520;28;20021;-82
2021/12/27 08:37:36;;;;;;;3.97;1.80;;;10.00;99.90;;;;;;5028572;28;20037;-82
2021/12/27 08:40:03;;;;;;;2.20;1.38;;;10.00;99.90;;;;;;5035713;28;20034;-82
2021/12/27 08:42:29;;;;;;;3.03;1.88;;;10.00;99.90;;;;;;5025652;28;20040;-82
2021/12/27 08:44:54;;;;;;;3.45;1.98;;;10.10;99.90;;;;;;5027723;28;20053;-82
2021/12/27 08:47:20;;;;;;;4.03;2.10;;;10.00;99.90;;;;;;5028495;28;20048;-82
2021/12/27 08:49:46;;;;;;;5.75;3.10;;;10.00;99.90;;;;;;5028701;28;20149;-82
2021/12/27 08:52:12;;;;;;;7.22;3.88;;;10.10;99.90;;;;;;5024151;28;20384;-82
2021/12/27 08:54:38;;;;;;;5.22;3.15;;;10.10;99.90;;;;;;5028930;28;20029;-82
2021/12/27 08:57:05;;;;;;;6.13;2.78;;;10.00;99.90;;;;;;5028954;28;20028;-83
2021/12/27 08:59:32;;;;;;;4.80;2.95;;;10.10;99.90;;;;;;5028410;28;20034;-83
2021/12/27 09:01:58;;;;;;;3.75;2.30;;;10.10;99.90;;;;;;5027214;28;20044;-83
2021/12/27 09:04:24;;;;;;;3.15;2.20;;;10.10;99.90;;;;;;5028125;28;20077;-83
2021/12/27 09:06:50;;;;;;;2.47;1.80;;;10.10;99.90;;;;;;5024125;28;20526;-84
2021/12/27 09:09:16;;;;;;;5.60;1.85;;;10.20;99.90;;;;;;5022780;28;20033;-79
2021/12/27 09:11:45;;;;;;;4.95;3.22;;;10.20;99.90;;;;;;5020972;28;20411;-79
2021/12/27 09:14:12;;;;;;;30.05;16.58;;;10.30;99.90;;;;;;5016669;28;20033;-78
2021/12/27 09:16:38;;;;;;;31.77;17.45;;;10.30;99.90;;;;;;5024426;28;20017;-78
2021/12/27 09:19:03;;;;;;;39.05;22.00;;;10.40;99.90;;;;;;5026350;28;20517;-78
2021/12/27 09:21:29;;;;;;;27.60;16.15;;;10.40;99.90;;;;;;5026012;28;20033;-79
2021/12/27 09:23:55;;;;;;;16.55;9.75;;;10.50;99.90;;;;;;5056924;28;20522;-79
2021/12/27 09:26:21;;;;;;;11.43;6.60;;;10.50;99.90;;;;;;5025548;28;20037;-78
2021/12/27 09:28:46;;;;;;;7.43;5.00;;;10.50;99.90;;;;;;5023642;28;20104;-79
2021/12/27 09:31:12;;;;;;;8.80;5.65;;;10.60;99.90;;;;;;5023769;28;20449;-78
2021/12/27 09:33:38;;;;;;;9.88;6.20;;;10.60;99.90;;;;;;5021548;28;20253;-78
2021/12/27 09:36:04;;;;;;;12.27;4.22;;;10.60;99.90;;;;;;5026324;28;20566;-78
2021/12/27 09:38:30;;;;;;;8.75;3.78;;;10.60;99.90;;;;;;5028422;28;20029;-78
2021/12/27 09:40:55;;;;;;;5.70;3.28;;;10.60;99.90;;;;;;5025689;28;20529;-78
2021/12/27 09:43:23;;;;;;;5.47;3.15;;;10.70;99.90;;;;;;5023320;28;20037;-78
2021/12/27 09:45:49;;;;;;;5.50;2.35;;;10.80;99.90;;;;;;5023316;28;20029;-79
2021/12/27 09:48:15;;;;;;;3.45;2.28;;;10.80;99.90;;;;;;5028591;28;20074;-79
2021/12/27 09:50:45;;;;;;;19.02;9.73;;;10.90;99.90;;;;;;5029092;28;20130;-78
2021/12/27 09:53:11;;;;;;;14.70;7.73;;;10.80;99.90;;;;;;5019995;28;20029;-79
2021/12/27 09:55:37;;;;;;;10.15;5.97;;;10.80;99.90;;;;;;5027956;28;20040;-78
2021/12/27 09:58:03;;;;;;;13.95;5.63;;;10.90;99.90;;;;;;5030763;28;20519;-78
2021/12/27 10:00:29;;;;;;;10.65;6.35;;;10.90;99.90;;;;;;5030536;28;20036;-79
2021/12/27 10:02:56;;;;;;;14.45;6.75;;;11.10;99.90;;;;;;5019030;28;20030;-79
2021/12/27 10:05:25;;;;;;;18.02;6.15;;;11.20;99.90;;;;;;5023533;28;20037;-79
2021/12/27 10:07:51;;;;;;;12.90;6.00;;;11.30;99.90;;;;;;5026360;28;20060;-79
2021/12/27 10:10:18;;;;;;;13.40;7.20;;;11.50;99.90;;;;;;5030820;28;20487;-79
2021/12/27 10:12:45;;;;;;;13.02;5.63;;;11.60;99.90;;;;;;5029730;28;20025;-78
2021/12/27 10:15:22;;;;;;;10.35;4.90;;;11.70;99.90;;;;;;5030752;28;20115;-78
2021/12/27 10:17:49;;;;;;;14.43;5.38;;;11.80;99.90;;;;;;5032517;28;20061;-78
2021/12/27 10:20:16;;;;;;;11.00;4.40;;;12.00;99.90;;;;;;5028964;28;20045;-79
2021/12/27 10:22:46;;;;;;;12.05;4.05;;;12.10;99.90;;;;;;5027501;28;20029;-78
2021/12/27 10:25:26;;;;;;;12.98;4.22;;;12.20;99.90;;;;;;5033057;28;20021;-78
2021/12/27 10:27:53;;;;;;;7.70;2.97;;;12.20;99.90;;;;;;5030136;28;20025;-75
2021/12/27 10:30:22;;;;;;;11.07;2.67;;;12.00;99.90;;;;;;5026453;28;20029;-76
2021/12/27 10:33:24;;;;;;;7.38;3.55;;;12.10;99.90;;;;;;5030659;28;20026;-78
2021/12/27 10:35:54;;;;;;;;;;;12.10;99.90;;;;;;5006986;28;20152;-77
2021/12/27 10:38:21;;;;;;;10.90;3.72;;;12.20;99.90;;;;;;5001206;28;19975;-77
2021/12/27 10:40:53;;;;;;;8.77;3.80;;;12.20;99.90;;;;;;5007732;28;20026;-77
2021/12/27 10:43:36;;;;;;;15.02;4.32;;;12.20;99.90;;;;;;5003743;28;20033;-85
2021/12/27 10:46:04;;;;;;;10.75;4.10;;;12.30;99.90;;;;;;5007466;28;20038;-77
2021/12/27 10:48:36;;;;;;;8.77;2.92;;;12.30;99.90;;;;;;5006368;28;20245;-80
2021/12/27 10:51:04;;;;;;;15.20;4.32;;;12.40;99.90;;;;;;5006837;28;20034;-75
2021/12/27 10:54:01;;;;;;;11.40;3.85;;;12.60;99.90;;;;;;5008877;28;20656;-75
2021/12/27 10:56:47;;;;;;;10.63;3.58;;;13.00;99.90;;;;;;5009194;28;20034;-75
2021/12/27 10:59:17;;;;;;;12.27;3.08;;;13.20;99.90;;;;;;5008018;28;20147;-75
2021/12/27 11:01:47;;;;;;;9.32;2.83;;;13.40;99.90;;;;;;5007603;28;20092;-75
2021/12/27 11:04:17;;;;;;;25.40;4.45;;;13.30;99.90;;;;;;5006484;28;20042;-75
2021/12/27 11:06:43;;;;;;;9.60;2.55;;;13.40;99.90;;;;;;5006237;28;20498;-75
2021/12/27 11:09:09;;;;;;;12.75;3.50;;;13.50;99.90;;;;;;5007204;28;20046;-76
2021/12/27 11:11:35;;;;;;;11.63;3.10;;;13.50;99.90;;;;;;5021355;28;20037;-76
2021/12/27 11:14:01;;;;;;;11.10;3.45;;;13.50;99.90;;;;;;5022766;28;20118;-76
2021/12/27 11:16:28;;;;;;;13.50;3.17;;;13.70;99.90;;;;;;5029994;28;20021;-76
2021/12/27 11:18:58;;;;;;;11.35;3.15;;;13.60;99.90;;;;;;5039680;28;20040;-77
2021/12/27 11:21:37;;;;;;;16.92;3.83;;;13.60;99.90;;;;;;5029944;28;20104;-77
2021/12/27 11:24:04;;;;;;;18.58;3.88;;;13.40;99.90;;;;;;5029560;28;20565;-77
2021/12/27 11:26:35;;;;;;;14.82;2.97;;;13.30;99.90;;;;;;5027174;28;20034;-77
2021/12/27 11:29:14;;;;;;;15.40;2.88;;;13.20;99.90;;;;;;5027980;28;20072;-77
2021/12/27 11:31:41;;;;;;;20.63;4.80;;;13.20;99.90;;;;;;5029435;28;20030;-77
2021/12/27 11:34:12;;;;;;;30.02;6.78;;;13.30;99.90;;;;;;5029904;28;20044;-77
2021/12/27 11:36:41;;;;;;;23.48;6.05;;;13.30;99.90;;;;;;5028575;28;20025;-78
2021/12/27 11:39:25;;;;;;;16.50;4.80;;;13.30;99.90;;;;;;5027914;28;20126;-78
2021/12/27 11:42:07;;;;;;;28.67;5.05;;;13.20;99.90;;;;;;5028536;28;20024;-78
2021/12/27 11:44:43;;;;;;;22.63;5.30;;;13.20;99.90;;;;;;5027462;28;20057;-78
2021/12/27 11:47:11;;;;;;;22.65;4.38;;;13.20;99.90;;;;;;5029430;28;20175;-77
2021/12/27 11:49:45;;;;;;;25.13;6.07;;;13.20;99.90;;;;;;5020617;28;20037;-78
2021/12/27 11:52:20;;;;;;;20.55;4.80;;;13.30;99.90;;;;;;5028679;28;20610;-77
2021/12/27 11:54:54;;;;;;;19.42;4.45;;;13.60;99.90;;;;;;5027308;28;20037;-77
2021/12/27 11:57:38;;;;;;;17.23;4.57;;;14.00;99.90;;;;;;5029214;28;20096;-77
2021/12/27 12:00:26;;;;;;;23.02;4.55;;;14.00;99.90;;;;;;5029587;28;20108;-77
2021/12/27 12:03:02;;;;;;;26.33;6.03;;;13.90;99.90;;;;;;5029227;28;20021;-76
2021/12/27 12:05:44;;;;;;;22.40;4.93;;;14.10;99.90;;;;;;5025955;28;20037;-84
2021/12/27 12:08:15;;;;;;;21.95;6.20;;;14.20;99.90;;;;;;5024451;28;20038;-84
2021/12/27 12:10:56;;;;;;;;;;;14.40;99.90;;;;;;5025145;28;20040;-85
2021/12/27 12:13:40;;;;;;;23.35;6.28;;;14.40;99.90;;;;;;5028879;28;19909;-84
2021/12/27 12:16:19;;;;;;;24.15;6.10;;;14.60;99.90;;;;;;5025218;28;20018;-84
2021/12/27 12:18:51;;;;;;;29.70;5.82;;;14.80;99.90;;;;;;5029797;28;20052;-84
2021/12/27 12:21:31;;;;;;;28.08;5.10;;;14.90;99.90;;;;;;5026935;28;20029;-84
2021/12/27 12:24:06;;;;;;;29.10;4.93;;;14.50;99.90;;;;;;5025252;28;20148;-84
2021/12/27 12:27:02;;;;;;;32.22;5.28;;;14.50;99.90;;;;;;5028871;28;20029;-83
2021/12/27 12:29:39;;;;;;;23.60;5.70;;;14.70;99.90;;;;;;5008379;28;20065;-84
2021/12/27 12:32:08;;;;;;;29.33;5.43;;;14.70;99.90;;;;;;5026039;28;20048;-84
2021/12/27 12:34:35;;;;;;;23.92;4.72;;;14.70;99.90;;;;;;5023465;28;20112;-84
2021/12/27 12:37:03;;;;;;;23.52;6.05;;;14.70;99.90;;;;;;5026304;28;20032;-84
2021/12/27 12:39:41;;;;;;;26.30;5.35;;;14.70;99.90;;;;;;5034971;28;20369;-83
2021/12/27 12:42:17;;;;;;;25.80;5.43;;;14.40;99.90;;;;;;5026578;28;20092;-84
2021/12/27 12:44:56;;;;;;;34.33;6.82;;;14.20;99.90;;;;;;5028429;28;20599;-84
2021/12/27 12:47:24;;;;;;;25.95;5.90;;;14.10;99.90;;;;;;5027515;28;20029;-84
2021/12/27 12:49:51;;;;;;;22.85;6.50;;;14.20;99.90;;;;;;5025848;28;20528;-81
2021/12/27 12:52:17;;;;;;;24.33;6.38;;;14.20;99.90;;;;;;5024666;28;20035;-79
2021/12/27 12:54:44;;;;;;;27.88;6.18;;;14.30;99.90;;;;;;5027368;28;20021;-79